createdAt,value
2022-12-03T00:01:57.531Z,98307.81
2022-12-03T00:05:59.562Z,98316.38
2022-12-03T00:10:01.812Z,98298.31
2022-12-03T00:14:04.061Z,98301.75
2022-12-03T00:18:06.284Z,98290.63
2022-12-03T00:22:08.418Z,98292.34
2022-12-03T00:26:10.651Z,98297.47
2022-12-03T00:30:13.567Z,98288.03
2022-12-03T00:34:16.891Z,98300.06
2022-12-03T00:38:19.069Z,98292.34
2022-12-03T00:42:21.254Z,98295.75
2022-12-03T00:46:24.702Z,98298.31
2022-12-03T00:50:26.875Z,98291.44
2022-12-03T00:54:32.105Z,98286.28
2022-12-03T00:58:34.750Z,98288.03
2022-12-03T01:02:37.013Z,98284.53
2022-12-03T01:06:39.149Z,98285.44
2022-12-03T01:10:41.330Z,98281.13
2022-12-03T01:14:43.594Z,98282.84
2022-12-03T01:18:46.269Z,98288.84
2022-12-03T01:22:48.526Z,98293.13
2022-12-03T01:26:50.638Z,98299.13
2022-12-03T01:31:11.452Z,98292.25
2022-12-03T01:35:13.636Z,98294.81
2022-12-03T01:39:15.723Z,98296.53
2022-12-03T01:43:17.851Z,98295.69
2022-12-03T01:47:24.525Z,98300.81
2022-12-03T01:51:26.788Z,98297.34
2022-12-03T01:55:29.821Z,98298.22
2022-12-03T01:59:38.643Z,98297.38
2022-12-03T02:03:41.408Z,98292.25
2022-12-03T02:07:43.969Z,98293.13
2022-12-03T02:11:49.529Z,98295.72
2022-12-03T02:15:51.706Z,98299.97
2022-12-03T02:19:55.115Z,98301.69
2022-12-03T02:24:29.088Z,98299.13
2022-12-03T02:28:31.465Z,98300.00
2022-12-03T02:32:33.806Z,98303.44
2022-12-03T02:36:37.447Z,98292.28
2022-12-03T02:40:40.944Z,98306.03
2022-12-03T02:44:43.246Z,98294.88
2022-12-03T02:48:45.401Z,98296.56
2022-12-03T02:52:48.468Z,98294.88
2022-12-03T02:56:50.635Z,98294.00
2022-12-03T03:00:54.226Z,98294.00
2022-12-03T03:04:57.215Z,98301.75
2022-12-03T03:08:59.416Z,98294.88
2022-12-03T03:13:03.478Z,98297.44
2022-12-03T03:17:06.440Z,98296.56
2022-12-03T03:21:08.741Z,98293.94
2022-12-03T03:25:15.293Z,98289.63
2022-12-03T03:29:17.786Z,98292.19
2022-12-03T03:33:20.153Z,98287.88
2022-12-03T03:37:23.790Z,98285.28
2022-12-03T03:41:26.932Z,98277.53
2022-12-03T03:45:29.912Z,98276.69
2022-12-03T03:49:32.663Z,98280.06
2022-12-03T03:53:38.622Z,98287.78
2022-12-03T03:57:40.808Z,98280.94
2022-12-03T04:01:44.703Z,98274.06
2022-12-03T04:05:47.608Z,98274.06
2022-12-03T04:09:49.737Z,98262.09
2022-12-03T04:13:51.848Z,98263.00
2022-12-03T04:18:13.556Z,98265.56
2022-12-03T04:22:35.010Z,98256.06
2022-12-03T04:26:55.728Z,98262.09
2022-12-03T04:30:57.937Z,98256.09
2022-12-03T04:35:18.913Z,98248.38
2022-12-03T04:39:21.079Z,98238.94
2022-12-03T04:43:23.675Z,98241.53
2022-12-03T04:47:25.742Z,98228.66
2022-12-03T04:51:27.877Z,98234.69
2022-12-03T04:55:30.005Z,98229.50
2022-12-03T04:59:32.454Z,98239.81
2022-12-03T05:03:34.575Z,98243.19
2022-12-03T05:07:37.193Z,98245.81
2022-12-03T05:11:40.307Z,98256.09
2022-12-03T05:15:42.464Z,98250.09
2022-12-03T05:20:03.076Z,98249.25
2022-12-03T05:24:05.696Z,98257.00
2022-12-03T05:28:07.889Z,98255.25
2022-12-03T05:32:10.005Z,98241.47
2022-12-03T05:36:12.147Z,98248.34
2022-12-03T05:40:14.843Z,98244.94
2022-12-03T05:44:20.468Z,98253.47
2022-12-03T05:48:23.001Z,98243.19
2022-12-03T05:52:25.205Z,98252.69
2022-12-03T05:56:27.296Z,98253.56
2022-12-03T06:00:32.165Z,98251.88
2022-12-03T06:04:34.267Z,98261.31
2022-12-03T06:08:36.481Z,98248.47
2022-12-03T06:12:38.706Z,98245.13
2022-12-03T06:16:40.841Z,98245.19
2022-12-03T06:20:43.044Z,98245.16
2022-12-03T06:24:45.481Z,98236.56
2022-12-03T06:28:49.111Z,98241.69
2022-12-03T06:32:51.259Z,98252.84
2022-12-03T06:36:54.484Z,98251.13
2022-12-03T06:40:56.731Z,98243.41
2022-12-03T06:44:58.856Z,98242.59
2022-12-03T06:49:01.021Z,98241.69
2022-12-03T06:53:03.122Z,98246.81
2022-12-03T06:57:05.288Z,98243.34
2022-12-03T07:01:07.503Z,98250.28
2022-12-03T07:05:09.768Z,98248.53
2022-12-03T07:09:11.911Z,98244.22
2022-12-03T07:13:13.993Z,98246.81
2022-12-03T07:17:16.076Z,98244.22
2022-12-03T07:21:18.239Z,98239.97
2022-12-03T07:25:23.496Z,98235.66
2022-12-03T07:29:26.001Z,98238.25
2022-12-03T07:33:28.121Z,98236.56
2022-12-03T07:37:32.561Z,98241.69
2022-12-03T07:41:34.729Z,98241.84
2022-12-03T07:45:36.817Z,98241.88
2022-12-03T07:49:38.904Z,98249.59
2022-12-03T07:53:40.992Z,98241.81
2022-12-03T07:57:43.226Z,98239.22
2022-12-03T08:01:45.985Z,98234.03
2022-12-03T08:05:48.303Z,98236.59
2022-12-03T08:09:50.600Z,98241.75
2022-12-03T08:13:52.717Z,98236.56
2022-12-03T08:17:58.633Z,98244.31
2022-12-03T08:22:01.746Z,98238.31
2022-12-03T08:26:12.847Z,98240.88
2022-12-03T08:30:16.932Z,98241.75
2022-12-03T08:34:26.131Z,98243.50
2022-12-03T08:38:29.698Z,98246.97
2022-12-03T08:42:42.894Z,98254.69
2022-12-03T08:46:45.285Z,98250.38
2022-12-03T08:50:47.710Z,98246.03
2022-12-03T08:54:55.057Z,98246.94
2022-12-03T08:59:14.481Z,98246.09
2022-12-03T09:03:19.075Z,98243.53
2022-12-03T09:07:21.136Z,98245.25
2022-12-03T09:11:23.277Z,98246.13
2022-12-03T09:15:25.501Z,98247.84
2022-12-03T09:19:30.864Z,98247.84
2022-12-03T09:23:32.948Z,98246.09
2022-12-03T09:27:35.217Z,98244.41
2022-12-03T09:31:38.222Z,98240.94
2022-12-03T09:35:40.475Z,98244.38
2022-12-03T09:39:42.569Z,98235.81
2022-12-03T09:48:07.283Z,98237.53
2022-12-03T09:52:20.701Z,98230.66
2022-12-03T09:56:23.516Z,98232.41
2022-12-03T10:00:29.130Z,98226.38
2022-12-03T10:04:31.580Z,98217.78
2022-12-03T10:08:33.894Z,98212.63
2022-12-03T10:12:36.042Z,98216.09
2022-12-03T10:16:40.251Z,98203.19
2022-12-03T10:20:42.571Z,98200.59
2022-12-03T10:24:45.143Z,98207.47
2022-12-03T10:28:47.726Z,98198.88
2022-12-03T10:32:51.214Z,98193.72
2022-12-03T10:37:09.737Z,98183.38
2022-12-03T10:41:28.441Z,98176.50
2022-12-03T10:45:30.591Z,98165.34
2022-12-03T10:49:33.180Z,98172.22
2022-12-03T10:53:38.583Z,98167.91
2022-12-03T10:57:45.618Z,98164.47
2022-12-03T11:01:49.576Z,98166.22
2022-12-03T11:05:52.689Z,98176.53
2022-12-03T11:10:16.070Z,98161.91
2022-12-03T11:14:56.524Z,98155.91
2022-12-03T11:19:01.237Z,98162.78
2022-12-03T11:23:03.313Z,98159.31
2022-12-03T11:27:06.862Z,98148.13
2022-12-03T11:31:29.081Z,98139.50
2022-12-03T11:36:02.918Z,98142.06
2022-12-03T11:40:17.171Z,98131.78
2022-12-03T11:44:38.379Z,98128.31
2022-12-03T11:48:44.954Z,98132.63
2022-12-03T11:53:14.864Z,98122.31
2022-12-03T11:57:27.705Z,98117.19
2022-12-03T12:01:40.740Z,98125.78
2022-12-03T12:05:42.890Z,98112.91
2022-12-03T12:09:54.700Z,98107.75
2022-12-03T12:14:04.984Z,98100.84
2022-12-03T12:18:39.951Z,98095.69
2022-12-03T12:22:42.059Z,98089.69
2022-12-03T12:26:51.095Z,98086.25
2022-12-03T12:30:53.182Z,98081.09
2022-12-03T12:35:05.397Z,98075.94
2022-12-03T12:39:12.887Z,98069.91
2022-12-03T12:43:24.433Z,98071.63
2022-12-03T12:47:29.892Z,98075.06
2022-12-03T12:51:32.077Z,98066.50
2022-12-03T12:55:38.285Z,98063.06
2022-12-03T12:59:40.604Z,98078.53
2022-12-03T13:03:42.734Z,98069.09
2022-12-03T13:07:45.624Z,98074.25
2022-12-03T13:11:53.432Z,98076.81
2022-12-03T13:16:03.676Z,98079.41
2022-12-03T13:20:16.361Z,98076.84
2022-12-03T13:24:30.089Z,98075.97
2022-12-03T13:28:33.651Z,98072.53
2022-12-03T13:32:41.230Z,98081.13
2022-12-03T13:36:45.815Z,98075.13
2022-12-03T13:40:58.900Z,98070.81
2022-12-03T13:45:02.040Z,98060.50
2022-12-03T13:49:12.675Z,98060.50
2022-12-03T13:53:27.465Z,98063.94
2022-12-03T13:57:29.549Z,98063.09
2022-12-03T14:01:31.820Z,98062.25
2022-12-03T14:05:33.997Z,98063.97
2022-12-03T14:09:36.126Z,98055.38
2022-12-03T14:13:38.971Z,98058.81
2022-12-03T14:17:41.483Z,98051.09
2022-12-03T14:21:43.662Z,98055.38
2022-12-03T14:25:45.769Z,98055.38
2022-12-03T14:29:47.907Z,98047.66
2022-12-03T14:33:49.996Z,98046.78
2022-12-03T14:37:52.121Z,98049.38
2022-12-03T14:42:12.791Z,98056.22
2022-12-03T14:46:14.922Z,98044.22
2022-12-03T14:50:17.173Z,98045.94
2022-12-03T14:54:19.286Z,98048.50
2022-12-03T14:58:21.441Z,98044.22
2022-12-03T15:02:23.650Z,98044.22
2022-12-03T15:06:25.879Z,98040.78
2022-12-03T15:10:28.157Z,98048.50
2022-12-03T15:14:30.276Z,98045.94
2022-12-03T15:18:34.479Z,98049.38
2022-12-03T15:22:36.558Z,98045.91
2022-12-03T15:26:38.672Z,98052.78
2022-12-03T15:30:40.802Z,98049.38
2022-12-03T15:34:42.998Z,98051.94
2022-12-03T15:38:45.148Z,98042.47
2022-12-03T15:42:47.413Z,98052.78
2022-12-03T15:46:49.560Z,98045.94
2022-12-03T15:50:51.612Z,98051.94
2022-12-03T15:54:55.131Z,98051.94
2022-12-03T15:58:58.150Z,98051.97
2022-12-03T16:03:00.347Z,98048.50
2022-12-03T16:07:03.411Z,98049.38
2022-12-03T16:11:05.830Z,98045.94
2022-12-03T16:15:08.216Z,98045.06
2022-12-03T16:19:10.343Z,98048.50
2022-12-03T16:23:12.544Z,98052.78
2022-12-03T16:27:14.620Z,98061.41
2022-12-03T16:31:18.920Z,98051.09
2022-12-03T16:35:21.131Z,98054.53
2022-12-03T16:39:23.340Z,98052.78
2022-12-03T16:43:25.826Z,98044.22
2022-12-03T16:47:33.444Z,98049.38
2022-12-03T16:51:36.079Z,98046.78
2022-12-03T16:55:38.275Z,98051.06
2022-12-03T16:59:40.686Z,98039.91
2022-12-03T17:03:42.806Z,98048.50
2022-12-03T17:07:45.008Z,98047.63
2022-12-03T17:11:47.127Z,98040.78
2022-12-03T17:15:50.299Z,98042.50
2022-12-03T17:19:53.556Z,98039.06
2022-12-03T17:23:55.857Z,98030.47
2022-12-03T17:27:57.930Z,98025.31
2022-12-03T17:32:00.111Z,98027.91
2022-12-03T17:36:02.313Z,98032.19
2022-12-03T17:40:06.881Z,98024.44
2022-12-03T17:44:11.384Z,98025.31
2022-12-03T17:48:14.317Z,98025.31
2022-12-03T17:52:16.465Z,98016.72
2022-12-03T17:56:18.567Z,98029.59
2022-12-03T18:00:20.786Z,98005.56
2022-12-03T18:04:23.010Z,98014.16
2022-12-03T18:08:25.249Z,98015.03
2022-12-03T18:12:27.476Z,98011.56
2022-12-03T18:16:29.680Z,98021.03
2022-12-03T18:20:31.970Z,98018.44
2022-12-03T18:24:34.343Z,98017.59
2022-12-03T18:28:36.527Z,98017.59
2022-12-03T18:32:38.683Z,98011.56
2022-12-03T18:36:41.181Z,98004.69
2022-12-03T18:40:45.305Z,98003.00
2022-12-03T18:44:49.938Z,98003.84
2022-12-03T18:48:52.444Z,98005.56
2022-12-03T18:52:54.575Z,97996.13
2022-12-03T18:56:56.689Z,97997.84
2022-12-03T19:00:58.839Z,97998.69
2022-12-03T19:05:01.046Z,97998.69
2022-12-03T19:09:03.240Z,98006.44
2022-12-03T19:13:05.395Z,98001.28
2022-12-03T19:17:09.420Z,97990.97
2022-12-03T19:21:14.786Z,97990.94
2022-12-03T19:25:16.936Z,97997.84
2022-12-03T19:29:19.012Z,97992.69
2022-12-03T19:33:25.232Z,97989.25
2022-12-03T19:37:33.845Z,97994.41
2022-12-03T19:41:35.956Z,97982.41
2022-12-03T19:45:38.153Z,97992.69
2022-12-03T19:49:40.322Z,97990.97
2022-12-03T19:53:42.881Z,97982.38
2022-12-03T19:57:45.712Z,97975.50
2022-12-03T20:01:47.867Z,97978.91
2022-12-03T20:05:50.502Z,97988.41
2022-12-03T20:09:53.193Z,97979.81
2022-12-03T20:13:58.181Z,97977.22
2022-12-03T20:18:00.298Z,97982.38
2022-12-03T20:22:03.142Z,97986.66
2022-12-03T20:26:10.716Z,97982.38
2022-12-03T20:30:13.037Z,97982.38
2022-12-03T20:34:15.172Z,97981.50
2022-12-03T20:38:17.242Z,97972.06
2022-12-03T20:42:19.340Z,97976.34
2022-12-03T20:46:26.444Z,97969.50
2022-12-03T20:50:28.680Z,97974.63
2022-12-03T20:54:30.880Z,97976.34
2022-12-03T20:58:33.861Z,97978.91
2022-12-03T21:02:37.445Z,97971.16
2022-12-03T21:06:42.247Z,97975.47
2022-12-03T21:10:47.221Z,97968.59
2022-12-03T21:14:49.319Z,97972.88
2022-12-03T21:18:51.978Z,97970.31
2022-12-03T21:22:54.092Z,97957.41
2022-12-03T21:26:56.296Z,97963.41
2022-12-03T21:31:07.708Z,97961.69
2022-12-03T21:35:10.219Z,97970.28
2022-12-03T21:39:12.482Z,97956.53
2022-12-03T21:43:15.014Z,97959.13
2022-12-03T21:47:17.309Z,97962.56
2022-12-03T21:51:19.865Z,97954.84
2022-12-03T21:55:21.997Z,97953.13
2022-12-03T21:59:24.092Z,97961.75
2022-12-03T22:03:26.712Z,97955.69
2022-12-03T22:07:28.872Z,97961.72
2022-12-03T22:11:31.139Z,97954.84
2022-12-03T22:15:33.278Z,97960.84
2022-12-03T22:19:35.354Z,97950.53
2022-12-03T22:23:37.964Z,97957.41
2022-12-03T22:27:40.121Z,97949.69
2022-12-03T22:31:42.233Z,97945.41
2022-12-03T22:35:44.309Z,97953.97
2022-12-03T22:39:46.368Z,97947.97
2022-12-03T22:43:49.596Z,97947.97
2022-12-03T22:47:51.673Z,97933.38
2022-12-03T22:51:53.824Z,97938.50
2022-12-03T22:55:57.915Z,97941.09
2022-12-03T23:00:00.071Z,97930.78
2022-12-03T23:04:03.539Z,97938.53
2022-12-03T23:08:12.493Z,97929.94
2022-12-03T23:12:14.876Z,97918.75
2022-12-03T23:16:23.283Z,97921.34
2022-12-03T23:20:26.023Z,97923.91
2022-12-03T23:24:28.661Z,97923.06
2022-12-03T23:28:32.981Z,97920.47
2022-12-03T23:32:36.119Z,97901.63
2022-12-03T23:36:38.254Z,97898.16
2022-12-03T23:40:46.417Z,97890.44
2022-12-03T23:44:50.100Z,97895.59
2022-12-03T23:48:52.413Z,97876.75
2022-12-03T23:52:54.583Z,97878.50
2022-12-03T23:56:56.685Z,97886.22
